sensor_id;sensor_type;location;lat;lon;timestamp;P1;durP1;ratioP1;P2;durP2;ratioP2
5157;SDS011;2598;52.364;9.772;2022-07-29T00:02:00;10.83;;;1.70;;
5157;SDS011;2598;52.364;9.772;2022-07-29T00:04:26;8.80;;;1.30;;
5157;SDS011;2598;52.364;9.772;2022-07-29T00:06:52;7.57;;;1.30;;
5157;SDS011;2598;52.364;9.772;2022-07-29T00:09:18;7.77;;;1.70;;
5157;SDS011;2598;52.364;9.772;2022-07-29T00:11:44;8.77;;;1.47;;
5157;SDS011;2598;52.364;9.772;2022-07-29T00:14:10;7.20;;;1.50;;
5157;SDS011;2598;52.364;9.772;2022-07-29T00:16:36;7.53;;;1.30;;
5157;SDS011;2598;52.364;9.772;2022-07-29T00:19:02;12.10;;;2.03;;
5157;SDS011;2598;52.364;9.772;2022-07-29T00:21:28;7.90;;;1.20;;
5157;SDS011;2598;52.364;9.772;2022-07-29T00:23:54;10.50;;;1.60;;
5157;SDS011;2598;52.364;9.772;2022-07-29T00:26:20;8.03;;;1.63;;
5157;SDS011;2598;52.364;9.772;2022-07-29T00:28:46;6.73;;;1.17;;
5157;SDS011;2598;52.364;9.772;2022-07-29T00:31:12;7.90;;;1.40;;
5157;SDS011;2598;52.364;9.772;2022-07-29T00:33:38;20.30;;;2.20;;
5157;SDS011;2598;52.364;9.772;2022-07-29T00:36:04;9.00;;;1.97;;
5157;SDS011;2598;52.364;9.772;2022-07-29T00:38:30;10.20;;;1.50;;
5157;SDS011;2598;52.364;9.772;2022-07-29T00:40:56;7.73;;;1.37;;
5157;SDS011;2598;52.364;9.772;2022-07-29T00:43:22;8.77;;;1.70;;
5157;SDS011;2598;52.364;9.772;2022-07-29T00:45:48;9.60;;;1.63;;
5157;SDS011;2598;52.364;9.772;2022-07-29T00:48:14;7.30;;;1.43;;
5157;SDS011;2598;52.364;9.772;2022-07-29T00:50:41;8.63;;;1.60;;
5157;SDS011;2598;52.364;9.772;2022-07-29T00:53:07;11.63;;;1.93;;
5157;SDS011;2598;52.364;9.772;2022-07-29T00:55:33;7.73;;;1.80;;
5157;SDS011;2598;52.364;9.772;2022-07-29T00:58:00;9.37;;;1.63;;
5157;SDS011;2598;52.364;9.772;2022-07-29T01:00:27;10.60;;;1.63;;
5157;SDS011;2598;52.364;9.772;2022-07-29T01:02:53;8.37;;;1.63;;
5157;SDS011;2598;52.364;9.772;2022-07-29T01:05:23;8.60;;;1.70;;
5157;SDS011;2598;52.364;9.772;2022-07-29T01:07:51;8.83;;;1.40;;
5157;SDS011;2598;52.364;9.772;2022-07-29T01:10:18;8.27;;;1.50;;
5157;SDS011;2598;52.364;9.772;2022-07-29T01:12:46;9.03;;;1.60;;
5157;SDS011;2598;52.364;9.772;2022-07-29T01:15:12;7.80;;;1.30;;
5157;SDS011;2598;52.364;9.772;2022-07-29T01:17:41;19.70;;;1.97;;
5157;SDS011;2598;52.364;9.772;2022-07-29T01:20:30;10.40;;;1.57;;
5157;SDS011;2598;52.364;9.772;2022-07-29T01:30:30;11.17;;;1.83;;
5157;SDS011;2598;52.364;9.772;2022-07-29T01:33:02;8.33;;;1.30;;
5157;SDS011;2598;52.364;9.772;2022-07-29T01:35:31;11.77;;;1.87;;
5157;SDS011;2598;52.364;9.772;2022-07-29T01:43:09;9.30;;;1.77;;
5157;SDS011;2598;52.364;9.772;2022-07-29T01:45:53;10.60;;;1.20;;
5157;SDS011;2598;52.364;9.772;2022-07-29T01:48:21;7.97;;;1.50;;
5157;SDS011;2598;52.364;9.772;2022-07-29T01:50:49;8.37;;;1.43;;
5157;SDS011;2598;52.364;9.772;2022-07-29T01:53:18;10.87;;;1.60;;
5157;SDS011;2598;52.364;9.772;2022-07-29T01:55:47;14.30;;;1.80;;
5157;SDS011;2598;52.364;9.772;2022-07-29T01:58:14;7.20;;;1.40;;
5157;SDS011;2598;52.364;9.772;2022-07-29T02:00:41;15.37;;;1.80;;
5157;SDS011;2598;52.364;9.772;2022-07-29T02:03:09;7.90;;;1.80;;
5157;SDS011;2598;52.364;9.772;2022-07-29T02:05:35;8.87;;;1.80;;
5157;SDS011;2598;52.364;9.772;2022-07-29T02:08:03;8.93;;;1.40;;
5157;SDS011;2598;52.364;9.772;2022-07-29T02:10:30;9.50;;;1.50;;
5157;SDS011;2598;52.364;9.772;2022-07-29T02:12:57;7.80;;;1.27;;
5157;SDS011;2598;52.364;9.772;2022-07-29T02:15:24;10.27;;;1.80;;
5157;SDS011;2598;52.364;9.772;2022-07-29T02:17:52;11.30;;;1.80;;
5157;SDS011;2598;52.364;9.772;2022-07-29T02:20:19;10.27;;;1.70;;
5157;SDS011;2598;52.364;9.772;2022-07-29T02:22:45;14.00;;;1.60;;
5157;SDS011;2598;52.364;9.772;2022-07-29T02:25:12;8.60;;;1.40;;
5157;SDS011;2598;52.364;9.772;2022-07-29T02:27:39;7.73;;;1.70;;
5157;SDS011;2598;52.364;9.772;2022-07-29T02:30:06;8.67;;;1.40;;
5157;SDS011;2598;52.364;9.772;2022-07-29T02:32:34;8.43;;;1.50;;
5157;SDS011;2598;52.364;9.772;2022-07-29T02:35:01;7.80;;;1.53;;
5157;SDS011;2598;52.364;9.772;2022-07-29T02:37:27;9.00;;;1.70;;
5157;SDS011;2598;52.364;9.772;2022-07-29T02:39:54;7.53;;;1.67;;
5157;SDS011;2598;52.364;9.772;2022-07-29T02:42:21;10.30;;;1.40;;
5157;SDS011;2598;52.364;9.772;2022-07-29T02:44:47;8.10;;;1.50;;
5157;SDS011;2598;52.364;9.772;2022-07-29T02:47:16;8.20;;;1.30;;
5157;SDS011;2598;52.364;9.772;2022-07-29T02:52:16;7.60;;;1.30;;
5157;SDS011;2598;52.364;9.772;2022-07-29T02:57:35;7.00;;;1.17;;
5157;SDS011;2598;52.364;9.772;2022-07-29T03:00:06;9.73;;;1.47;;
5157;SDS011;2598;52.364;9.772;2022-07-29T03:02:33;8.80;;;1.57;;
5157;SDS011;2598;52.364;9.772;2022-07-29T03:04:59;13.63;;;1.60;;
5157;SDS011;2598;52.364;9.772;2022-07-29T03:07:27;9.47;;;1.63;;
5157;SDS011;2598;52.364;9.772;2022-07-29T03:09:53;8.23;;;1.87;;
5157;SDS011;2598;52.364;9.772;2022-07-29T03:12:19;7.83;;;1.73;;
5157;SDS011;2598;52.364;9.772;2022-07-29T03:14:46;9.20;;;1.80;;
5157;SDS011;2598;52.364;9.772;2022-07-29T03:17:12;8.73;;;1.70;;
5157;SDS011;2598;52.364;9.772;2022-07-29T03:19:39;10.13;;;1.93;;
5157;SDS011;2598;52.364;9.772;2022-07-29T03:22:05;7.53;;;1.40;;
5157;SDS011;2598;52.364;9.772;2022-07-29T03:24:32;10.63;;;1.57;;
5157;SDS011;2598;52.364;9.772;2022-07-29T03:26:58;8.00;;;1.57;;
5157;SDS011;2598;52.364;9.772;2022-07-29T03:29:25;8.97;;;1.70;;
5157;SDS011;2598;52.364;9.772;2022-07-29T03:31:51;16.57;;;1.60;;
5157;SDS011;2598;52.364;9.772;2022-07-29T03:34:17;8.90;;;1.53;;
5157;SDS011;2598;52.364;9.772;2022-07-29T03:36:43;6.70;;;1.40;;
5157;SDS011;2598;52.364;9.772;2022-07-29T03:39:09;7.20;;;1.23;;
5157;SDS011;2598;52.364;9.772;2022-07-29T03:41:37;13.23;;;1.70;;
5157;SDS011;2598;52.364;9.772;2022-07-29T03:44:06;9.07;;;1.63;;
5157;SDS011;2598;52.364;9.772;2022-07-29T03:46:33;9.67;;;1.60;;
5157;SDS011;2598;52.364;9.772;2022-07-29T03:49:00;9.53;;;1.63;;
5157;SDS011;2598;52.364;9.772;2022-07-29T03:51:26;9.53;;;1.90;;
5157;SDS011;2598;52.364;9.772;2022-07-29T03:53:52;10.90;;;2.00;;
5157;SDS011;2598;52.364;9.772;2022-07-29T03:56:20;8.97;;;1.50;;
5157;SDS011;2598;52.364;9.772;2022-07-29T03:58:47;8.90;;;1.73;;
5157;SDS011;2598;52.364;9.772;2022-07-29T04:01:13;12.90;;;2.40;;
5157;SDS011;2598;52.364;9.772;2022-07-29T04:03:40;8.40;;;1.77;;
5157;SDS011;2598;52.364;9.772;2022-07-29T04:06:06;9.83;;;2.00;;
5157;SDS011;2598;52.364;9.772;2022-07-29T04:08:32;8.33;;;1.80;;
5157;SDS011;2598;52.364;9.772;2022-07-29T04:10:59;7.03;;;1.63;;
5157;SDS011;2598;52.364;9.772;2022-07-29T04:13:25;14.33;;;2.30;;
5157;SDS011;2598;52.364;9.772;2022-07-29T04:15:51;9.50;;;1.60;;
5157;SDS011;2598;52.364;9.772;2022-07-29T04:18:17;12.40;;;2.33;;
5157;SDS011;2598;52.364;9.772;2022-07-29T04:20:43;9.53;;;1.80;;
5157;SDS011;2598;52.364;9.772;2022-07-29T04:23:09;11.13;;;1.60;;
5157;SDS011;2598;52.364;9.772;2022-07-29T04:25:39;8.73;;;1.80;;
5157;SDS011;2598;52.364;9.772;2022-07-29T04:28:05;11.93;;;2.30;;
5157;SDS011;2598;52.364;9.772;2022-07-29T04:30:31;9.43;;;2.53;;
5157;SDS011;2598;52.364;9.772;2022-07-29T04:32:58;10.37;;;2.03;;
5157;SDS011;2598;52.364;9.772;2022-07-29T04:35:25;8.30;;;1.87;;
5157;SDS011;2598;52.364;9.772;2022-07-29T04:37:51;8.03;;;1.70;;
5157;SDS011;2598;52.364;9.772;2022-07-29T04:40:17;7.23;;;1.60;;
5157;SDS011;2598;52.364;9.772;2022-07-29T04:42:43;8.47;;;1.80;;
5157;SDS011;2598;52.364;9.772;2022-07-29T04:45:09;10.83;;;1.80;;
5157;SDS011;2598;52.364;9.772;2022-07-29T04:47:35;8.20;;;1.73;;
5157;SDS011;2598;52.364;9.772;2022-07-29T04:50:01;7.97;;;1.77;;
5157;SDS011;2598;52.364;9.772;2022-07-29T04:52:27;12.60;;;2.20;;
5157;SDS011;2598;52.364;9.772;2022-07-29T04:54:53;16.37;;;2.10;;
5157;SDS011;2598;52.364;9.772;2022-07-29T04:57:19;12.07;;;1.80;;
5157;SDS011;2598;52.364;9.772;2022-07-29T04:59:45;9.77;;;2.00;;
5157;SDS011;2598;52.364;9.772;2022-07-29T05:02:11;9.37;;;2.20;;
5157;SDS011;2598;52.364;9.772;2022-07-29T05:04:37;10.03;;;2.23;;
5157;SDS011;2598;52.364;9.772;2022-07-29T05:07:03;9.47;;;2.20;;
5157;SDS011;2598;52.364;9.772;2022-07-29T05:09:29;9.63;;;2.10;;
5157;SDS011;2598;52.364;9.772;2022-07-29T05:11:57;8.20;;;2.00;;
5157;SDS011;2598;52.364;9.772;2022-07-29T05:14:23;9.57;;;1.90;;
5157;SDS011;2598;52.364;9.772;2022-07-29T05:16:49;14.90;;;2.40;;
5157;SDS011;2598;52.364;9.772;2022-07-29T05:19:16;7.07;;;1.73;;
5157;SDS011;2598;52.364;9.772;2022-07-29T05:21:42;14.43;;;2.23;;
5157;SDS011;2598;52.364;9.772;2022-07-29T05:24:08;8.40;;;2.00;;
5157;SDS011;2598;52.364;9.772;2022-07-29T05:26:34;8.53;;;1.77;;
5157;SDS011;2598;52.364;9.772;2022-07-29T05:29:00;8.77;;;2.10;;
5157;SDS011;2598;52.364;9.772;2022-07-29T05:31:26;9.73;;;2.20;;
5157;SDS011;2598;52.364;9.772;2022-07-29T05:33:52;11.03;;;2.67;;
5157;SDS011;2598;52.364;9.772;2022-07-29T05:36:18;8.47;;;2.20;;
5157;SDS011;2598;52.364;9.772;2022-07-29T05:38:44;9.60;;;2.03;;
5157;SDS011;2598;52.364;9.772;2022-07-29T05:41:10;9.33;;;1.67;;
5157;SDS011;2598;52.364;9.772;2022-07-29T05:43:36;13.33;;;2.60;;
5157;SDS011;2598;52.364;9.772;2022-07-29T05:46:02;9.60;;;2.30;;
5157;SDS011;2598;52.364;9.772;2022-07-29T05:48:28;10.43;;;2.00;;
5157;SDS011;2598;52.364;9.772;2022-07-29T05:50:54;10.63;;;2.07;;
5157;SDS011;2598;52.364;9.772;2022-07-29T05:53:20;10.97;;;2.00;;
5157;SDS011;2598;52.364;9.772;2022-07-29T05:55:49;9.10;;;2.10;;
5157;SDS011;2598;52.364;9.772;2022-07-29T05:58:16;9.53;;;2.43;;
5157;SDS011;2598;52.364;9.772;2022-07-29T06:00:42;8.10;;;1.80;;
5157;SDS011;2598;52.364;9.772;2022-07-29T06:03:09;11.33;;;2.20;;
5157;SDS011;2598;52.364;9.772;2022-07-29T06:05:35;9.90;;;2.17;;
5157;SDS011;2598;52.364;9.772;2022-07-29T06:08:01;8.30;;;2.00;;
5157;SDS011;2598;52.364;9.772;2022-07-29T06:10:27;7.80;;;2.10;;
5157;SDS011;2598;52.364;9.772;2022-07-29T06:12:53;12.60;;;2.17;;
5157;SDS011;2598;52.364;9.772;2022-07-29T06:15:19;11.00;;;2.23;;
5157;SDS011;2598;52.364;9.772;2022-07-29T06:17:45;10.37;;;1.90;;
5157;SDS011;2598;52.364;9.772;2022-07-29T06:20:11;8.70;;;2.13;;
5157;SDS011;2598;52.364;9.772;2022-07-29T06:22:37;10.23;;;2.57;;
5157;SDS011;2598;52.364;9.772;2022-07-29T06:25:03;11.20;;;2.17;;
5157;SDS011;2598;52.364;9.772;2022-07-29T06:27:29;17.27;;;2.37;;
5157;SDS011;2598;52.364;9.772;2022-07-29T06:29:55;13.03;;;2.30;;
5157;SDS011;2598;52.364;9.772;2022-07-29T06:32:21;10.30;;;2.20;;
5157;SDS011;2598;52.364;9.772;2022-07-29T06:34:47;11.27;;;2.60;;
5157;SDS011;2598;52.364;9.772;2022-07-29T06:37:13;10.83;;;2.17;;
5157;SDS011;2598;52.364;9.772;2022-07-29T06:39:40;14.50;;;2.33;;
5157;SDS011;2598;52.364;9.772;2022-07-29T06:42:06;9.90;;;2.70;;
5157;SDS011;2598;52.364;9.772;2022-07-29T06:44:32;11.63;;;2.70;;
5157;SDS011;2598;52.364;9.772;2022-07-29T06:46:59;11.10;;;2.93;;
5157;SDS011;2598;52.364;9.772;2022-07-29T06:49:25;9.00;;;2.40;;
5157;SDS011;2598;52.364;9.772;2022-07-29T06:51:52;11.23;;;2.67;;
5157;SDS011;2598;52.364;9.772;2022-07-29T06:54:18;11.83;;;2.30;;
5157;SDS011;2598;52.364;9.772;2022-07-29T06:56:44;10.60;;;3.03;;
5157;SDS011;2598;52.364;9.772;2022-07-29T06:59:11;14.27;;;2.80;;
5157;SDS011;2598;52.364;9.772;2022-07-29T07:01:37;10.70;;;2.47;;
5157;SDS011;2598;52.364;9.772;2022-07-29T07:04:04;14.00;;;2.20;;
5157;SDS011;2598;52.364;9.772;2022-07-29T07:06:30;11.27;;;2.97;;
5157;SDS011;2598;52.364;9.772;2022-07-29T07:08:56;9.83;;;2.63;;
5157;SDS011;2598;52.364;9.772;2022-07-29T07:11:22;12.07;;;2.97;;
5157;SDS011;2598;52.364;9.772;2022-07-29T07:13:48;10.60;;;2.73;;
5157;SDS011;2598;52.364;9.772;2022-07-29T07:16:14;11.27;;;2.87;;
5157;SDS011;2598;52.364;9.772;2022-07-29T07:18:40;11.73;;;2.87;;
5157;SDS011;2598;52.364;9.772;2022-07-29T07:21:06;9.33;;;2.60;;
5157;SDS011;2598;52.364;9.772;2022-07-29T07:23:32;8.97;;;2.40;;
5157;SDS011;2598;52.364;9.772;2022-07-29T07:25:58;10.20;;;2.73;;
5157;SDS011;2598;52.364;9.772;2022-07-29T07:28:24;11.33;;;2.67;;
5157;SDS011;2598;52.364;9.772;2022-07-29T07:30:51;13.00;;;3.30;;
5157;SDS011;2598;52.364;9.772;2022-07-29T07:33:17;12.20;;;2.47;;
5157;SDS011;2598;52.364;9.772;2022-07-29T07:35:43;10.00;;;2.63;;
5157;SDS011;2598;52.364;9.772;2022-07-29T07:38:09;9.03;;;2.30;;
5157;SDS011;2598;52.364;9.772;2022-07-29T07:40:35;10.00;;;2.17;;
5157;SDS011;2598;52.364;9.772;2022-07-29T07:43:01;10.47;;;2.63;;
5157;SDS011;2598;52.364;9.772;2022-07-29T07:45:27;8.77;;;2.57;;
5157;SDS011;2598;52.364;9.772;2022-07-29T07:47:53;9.27;;;2.20;;
5157;SDS011;2598;52.364;9.772;2022-07-29T07:50:19;10.00;;;2.50;;
5157;SDS011;2598;52.364;9.772;2022-07-29T07:52:46;10.57;;;2.87;;
5157;SDS011;2598;52.364;9.772;2022-07-29T07:55:12;11.77;;;2.90;;
5157;SDS011;2598;52.364;9.772;2022-07-29T07:57:38;8.70;;;2.20;;
5157;SDS011;2598;52.364;9.772;2022-07-29T08:00:04;8.57;;;1.80;;
5157;SDS011;2598;52.364;9.772;2022-07-29T08:02:31;12.30;;;2.60;;
5157;SDS011;2598;52.364;9.772;2022-07-29T08:04:57;12.60;;;2.50;;
5157;SDS011;2598;52.364;9.772;2022-07-29T08:07:24;14.77;;;3.03;;
5157;SDS011;2598;52.364;9.772;2022-07-29T08:09:50;10.90;;;3.37;;
5157;SDS011;2598;52.364;9.772;2022-07-29T08:12:16;11.07;;;2.83;;
5157;SDS011;2598;52.364;9.772;2022-07-29T08:14:42;11.43;;;2.77;;
5157;SDS011;2598;52.364;9.772;2022-07-29T08:17:08;9.83;;;2.90;;
5157;SDS011;2598;52.364;9.772;2022-07-29T08:19:34;8.90;;;2.63;;
5157;SDS011;2598;52.364;9.772;2022-07-29T08:22:01;9.40;;;2.80;;
5157;SDS011;2598;52.364;9.772;2022-07-29T08:24:27;19.27;;;3.23;;
5157;SDS011;2598;52.364;9.772;2022-07-29T08:27:12;11.37;;;2.70;;
5157;SDS011;2598;52.364;9.772;2022-07-29T08:29:38;11.37;;;2.80;;
5157;SDS011;2598;52.364;9.772;2022-07-29T08:32:05;12.23;;;2.70;;
5157;SDS011;2598;52.364;9.772;2022-07-29T08:34:31;18.23;;;2.70;;
5157;SDS011;2598;52.364;9.772;2022-07-29T08:36:57;9.80;;;2.60;;
5157;SDS011;2598;52.364;9.772;2022-07-29T08:39:23;10.40;;;2.67;;
5157;SDS011;2598;52.364;9.772;2022-07-29T08:41:50;16.83;;;3.50;;
5157;SDS011;2598;52.364;9.772;2022-07-29T08:44:16;10.33;;;2.60;;
5157;SDS011;2598;52.364;9.772;2022-07-29T08:46:43;8.80;;;2.27;;
5157;SDS011;2598;52.364;9.772;2022-07-29T08:49:09;12.50;;;2.60;;
5157;SDS011;2598;52.364;9.772;2022-07-29T08:51:35;9.70;;;2.70;;
5157;SDS011;2598;52.364;9.772;2022-07-29T08:54:02;11.33;;;2.87;;
5157;SDS011;2598;52.364;9.772;2022-07-29T08:56:28;14.10;;;2.80;;
5157;SDS011;2598;52.364;9.772;2022-07-29T08:58:54;10.30;;;2.70;;
5157;SDS011;2598;52.364;9.772;2022-07-29T09:01:24;11.17;;;3.00;;
5157;SDS011;2598;52.364;9.772;2022-07-29T09:03:50;12.20;;;2.70;;
5157;SDS011;2598;52.364;9.772;2022-07-29T09:06:20;11.83;;;2.77;;
5157;SDS011;2598;52.364;9.772;2022-07-29T09:08:47;11.47;;;3.13;;
5157;SDS011;2598;52.364;9.772;2022-07-29T09:11:13;10.20;;;2.80;;
5157;SDS011;2598;52.364;9.772;2022-07-29T09:13:39;12.17;;;3.00;;
5157;SDS011;2598;52.364;9.772;2022-07-29T09:16:06;12.43;;;2.60;;
5157;SDS011;2598;52.364;9.772;2022-07-29T09:18:36;12.20;;;2.60;;
5157;SDS011;2598;52.364;9.772;2022-07-29T09:21:03;13.23;;;3.40;;
5157;SDS011;2598;52.364;9.772;2022-07-29T09:24:04;10.80;;;2.50;;
5157;SDS011;2598;52.364;9.772;2022-07-29T09:26:32;9.33;;;2.77;;
5157;SDS011;2598;52.364;9.772;2022-07-29T09:28:58;10.53;;;2.97;;
5157;SDS011;2598;52.364;9.772;2022-07-29T09:32:07;12.03;;;2.43;;
5157;SDS011;2598;52.364;9.772;2022-07-29T09:34:14;15.27;;;3.10;;
5157;SDS011;2598;52.364;9.772;2022-07-29T09:36:44;11.80;;;2.80;;
5157;SDS011;2598;52.364;9.772;2022-07-29T09:39:11;12.90;;;2.90;;
5157;SDS011;2598;52.364;9.772;2022-07-29T09:41:50;12.43;;;3.00;;
5157;SDS011;2598;52.364;9.772;2022-07-29T09:44:19;12.37;;;3.27;;
5157;SDS011;2598;52.364;9.772;2022-07-29T09:46:53;7.87;;;2.00;;
5157;SDS011;2598;52.364;9.772;2022-07-29T09:49:19;15.00;;;2.60;;
5157;SDS011;2598;52.364;9.772;2022-07-29T09:51:45;9.87;;;2.67;;
5157;SDS011;2598;52.364;9.772;2022-07-29T09:54:24;9.77;;;2.93;;
5157;SDS011;2598;52.364;9.772;2022-07-29T09:56:53;12.70;;;2.30;;
5157;SDS011;2598;52.364;9.772;2022-07-29T09:59:19;14.13;;;2.73;;
5157;SDS011;2598;52.364;9.772;2022-07-29T10:01:47;9.87;;;2.53;;
5157;SDS011;2598;52.364;9.772;2022-07-29T10:04:14;14.73;;;3.27;;
5157;SDS011;2598;52.364;9.772;2022-07-29T10:06:57;9.97;;;2.77;;
5157;SDS011;2598;52.364;9.772;2022-07-29T10:09:23;12.07;;;2.87;;
5157;SDS011;2598;52.364;9.772;2022-07-29T10:14:31;11.10;;;2.87;;
5157;SDS011;2598;52.364;9.772;2022-07-29T10:16:59;9.57;;;2.73;;
5157;SDS011;2598;52.364;9.772;2022-07-29T10:19:29;9.90;;;2.50;;
5157;SDS011;2598;52.364;9.772;2022-07-29T10:21:56;21.70;;;2.77;;
5157;SDS011;2598;52.364;9.772;2022-07-29T10:24:23;12.77;;;2.80;;
5157;SDS011;2598;52.364;9.772;2022-07-29T10:26:50;12.47;;;3.03;;
5157;SDS011;2598;52.364;9.772;2022-07-29T10:29:16;13.60;;;2.77;;
5157;SDS011;2598;52.364;9.772;2022-07-29T10:34:31;11.60;;;3.13;;
5157;SDS011;2598;52.364;9.772;2022-07-29T10:37:03;11.10;;;2.73;;
5157;SDS011;2598;52.364;9.772;2022-07-29T10:39:43;10.53;;;2.97;;
5157;SDS011;2598;52.364;9.772;2022-07-29T10:42:18;9.20;;;2.60;;
5157;SDS011;2598;52.364;9.772;2022-07-29T10:44:45;12.10;;;3.00;;
5157;SDS011;2598;52.364;9.772;2022-07-29T10:47:21;12.20;;;2.73;;
5157;SDS011;2598;52.364;9.772;2022-07-29T10:50:04;10.00;;;2.53;;
5157;SDS011;2598;52.364;9.772;2022-07-29T10:55:34;19.53;;;2.43;;
5157;SDS011;2598;52.364;9.772;2022-07-29T11:00:41;14.80;;;2.93;;
5157;SDS011;2598;52.364;9.772;2022-07-29T11:03:07;15.63;;;2.47;;
5157;SDS011;2598;52.364;9.772;2022-07-29T11:05:52;13.23;;;2.83;;
5157;SDS011;2598;52.364;9.772;2022-07-29T11:08:19;7.87;;;2.27;;
5157;SDS011;2598;52.364;9.772;2022-07-29T11:10:49;11.53;;;2.83;;
5157;SDS011;2598;52.364;9.772;2022-07-29T11:16:00;14.53;;;2.63;;
5157;SDS011;2598;52.364;9.772;2022-07-29T11:18:26;17.17;;;2.83;;
5157;SDS011;2598;52.364;9.772;2022-07-29T11:20:52;11.87;;;2.93;;
5157;SDS011;2598;52.364;9.772;2022-07-29T11:23:23;11.30;;;2.53;;
5157;SDS011;2598;52.364;9.772;2022-07-29T11:28:39;10.37;;;2.80;;
5157;SDS011;2598;52.364;9.772;2022-07-29T11:31:08;9.73;;;2.47;;
5157;SDS011;2598;52.364;9.772;2022-07-29T11:33:35;14.23;;;2.90;;
5157;SDS011;2598;52.364;9.772;2022-07-29T11:38:34;13.03;;;2.73;;
5157;SDS011;2598;52.364;9.772;2022-07-29T11:43:52;11.90;;;2.40;;
5157;SDS011;2598;52.364;9.772;2022-07-29T11:49:03;9.97;;;2.40;;
5157;SDS011;2598;52.364;9.772;2022-07-29T11:51:29;12.63;;;2.70;;
5157;SDS011;2598;52.364;9.772;2022-07-29T11:53:56;10.60;;;2.90;;
5157;SDS011;2598;52.364;9.772;2022-07-29T11:56:23;9.33;;;2.43;;
5157;SDS011;2598;52.364;9.772;2022-07-29T11:59:00;13.10;;;2.80;;
5157;SDS011;2598;52.364;9.772;2022-07-29T12:01:26;11.00;;;3.03;;
5157;SDS011;2598;52.364;9.772;2022-07-29T12:04:01;8.80;;;2.40;;
5157;SDS011;2598;52.364;9.772;2022-07-29T12:06:27;9.97;;;2.40;;
5157;SDS011;2598;52.364;9.772;2022-07-29T12:08:53;10.50;;;2.53;;
5157;SDS011;2598;52.364;9.772;2022-07-29T12:11:20;11.97;;;2.83;;
5157;SDS011;2598;52.364;9.772;2022-07-29T12:13:46;8.30;;;2.50;;
5157;SDS011;2598;52.364;9.772;2022-07-29T12:16:12;9.67;;;2.43;;
5157;SDS011;2598;52.364;9.772;2022-07-29T12:18:38;16.50;;;3.33;;
5157;SDS011;2598;52.364;9.772;2022-07-29T12:21:04;8.67;;;1.90;;
5157;SDS011;2598;52.364;9.772;2022-07-29T12:23:32;9.47;;;2.60;;
5157;SDS011;2598;52.364;9.772;2022-07-29T12:25:58;15.20;;;2.67;;
5157;SDS011;2598;52.364;9.772;2022-07-29T12:28:25;10.33;;;2.67;;
5157;SDS011;2598;52.364;9.772;2022-07-29T12:30:51;12.80;;;2.57;;
5157;SDS011;2598;52.364;9.772;2022-07-29T12:33:25;9.37;;;2.60;;
5157;SDS011;2598;52.364;9.772;2022-07-29T12:35:58;9.97;;;2.63;;
5157;SDS011;2598;52.364;9.772;2022-07-29T12:38:25;12.00;;;2.77;;
5157;SDS011;2598;52.364;9.772;2022-07-29T12:40:51;10.00;;;2.67;;
5157;SDS011;2598;52.364;9.772;2022-07-29T12:43:19;14.70;;;2.70;;
5157;SDS011;2598;52.364;9.772;2022-07-29T12:45:46;9.53;;;2.43;;
5157;SDS011;2598;52.364;9.772;2022-07-29T12:48:12;12.33;;;2.37;;
5157;SDS011;2598;52.364;9.772;2022-07-29T12:50:52;10.60;;;2.67;;
5157;SDS011;2598;52.364;9.772;2022-07-29T12:53:18;12.67;;;2.37;;
5157;SDS011;2598;52.364;9.772;2022-07-29T12:55:46;14.93;;;2.67;;
5157;SDS011;2598;52.364;9.772;2022-07-29T12:58:14;9.03;;;2.43;;
5157;SDS011;2598;52.364;9.772;2022-07-29T13:00:40;13.63;;;2.50;;
5157;SDS011;2598;52.364;9.772;2022-07-29T13:03:06;9.87;;;2.67;;
5157;SDS011;2598;52.364;9.772;2022-07-29T13:05:39;13.43;;;3.07;;
5157;SDS011;2598;52.364;9.772;2022-07-29T13:08:09;9.87;;;2.63;;
5157;SDS011;2598;52.364;9.772;2022-07-29T13:10:35;8.93;;;2.67;;
5157;SDS011;2598;52.364;9.772;2022-07-29T13:13:12;9.43;;;2.73;;
5157;SDS011;2598;52.364;9.772;2022-07-29T13:15:39;11.37;;;2.97;;
5157;SDS011;2598;52.364;9.772;2022-07-29T13:18:25;10.97;;;3.17;;
5157;SDS011;2598;52.364;9.772;2022-07-29T13:20:52;10.57;;;2.70;;
5157;SDS011;2598;52.364;9.772;2022-07-29T13:23:18;11.23;;;2.63;;
5157;SDS011;2598;52.364;9.772;2022-07-29T13:25:44;10.80;;;2.60;;
5157;SDS011;2598;52.364;9.772;2022-07-29T13:28:10;11.20;;;2.73;;
5157;SDS011;2598;52.364;9.772;2022-07-29T13:30:36;12.30;;;2.47;;
5157;SDS011;2598;52.364;9.772;2022-07-29T13:33:02;11.40;;;3.27;;
5157;SDS011;2598;52.364;9.772;2022-07-29T13:35:28;9.77;;;2.90;;
5157;SDS011;2598;52.364;9.772;2022-07-29T13:37:54;9.60;;;2.80;;
5157;SDS011;2598;52.364;9.772;2022-07-29T13:40:21;11.63;;;3.00;;
5157;SDS011;2598;52.364;9.772;2022-07-29T13:42:46;9.27;;;2.83;;
5157;SDS011;2598;52.364;9.772;2022-07-29T13:45:13;10.17;;;2.97;;
5157;SDS011;2598;52.364;9.772;2022-07-29T13:47:39;10.00;;;2.77;;
5157;SDS011;2598;52.364;9.772;2022-07-29T13:50:06;11.13;;;3.10;;
5157;SDS011;2598;52.364;9.772;2022-07-29T13:52:32;11.77;;;2.70;;
5157;SDS011;2598;52.364;9.772;2022-07-29T13:54:59;9.93;;;3.27;;
5157;SDS011;2598;52.364;9.772;2022-07-29T13:57:25;11.70;;;2.77;;
5157;SDS011;2598;52.364;9.772;2022-07-29T13:59:51;13.03;;;2.70;;
5157;SDS011;2598;52.364;9.772;2022-07-29T14:02:17;11.07;;;2.87;;
5157;SDS011;2598;52.364;9.772;2022-07-29T14:04:43;10.97;;;2.93;;
5157;SDS011;2598;52.364;9.772;2022-07-29T14:07:09;9.87;;;2.83;;
5157;SDS011;2598;52.364;9.772;2022-07-29T14:09:35;8.73;;;2.73;;
5157;SDS011;2598;52.364;9.772;2022-07-29T14:12:01;9.77;;;3.27;;
5157;SDS011;2598;52.364;9.772;2022-07-29T14:14:27;12.10;;;2.80;;
5157;SDS011;2598;52.364;9.772;2022-07-29T14:16:54;9.30;;;3.17;;
5157;SDS011;2598;52.364;9.772;2022-07-29T14:19:20;9.30;;;2.80;;
5157;SDS011;2598;52.364;9.772;2022-07-29T14:21:46;11.00;;;3.10;;
5157;SDS011;2598;52.364;9.772;2022-07-29T14:24:12;9.13;;;2.70;;
5157;SDS011;2598;52.364;9.772;2022-07-29T14:26:38;11.67;;;3.20;;
5157;SDS011;2598;52.364;9.772;2022-07-29T14:29:04;9.57;;;3.10;;
5157;SDS011;2598;52.364;9.772;2022-07-29T14:31:30;12.80;;;2.80;;
5157;SDS011;2598;52.364;9.772;2022-07-29T14:33:56;11.20;;;3.40;;
5157;SDS011;2598;52.364;9.772;2022-07-29T14:36:22;14.23;;;3.43;;
5157;SDS011;2598;52.364;9.772;2022-07-29T14:38:48;8.87;;;3.00;;
5157;SDS011;2598;52.364;9.772;2022-07-29T14:41:14;9.00;;;2.70;;
5157;SDS011;2598;52.364;9.772;2022-07-29T14:43:40;9.30;;;2.97;;
5157;SDS011;2598;52.364;9.772;2022-07-29T14:46:06;12.20;;;2.90;;
5157;SDS011;2598;52.364;9.772;2022-07-29T14:48:32;13.70;;;2.70;;
5157;SDS011;2598;52.364;9.772;2022-07-29T14:50:58;9.70;;;3.13;;
5157;SDS011;2598;52.364;9.772;2022-07-29T14:53:24;8.60;;;2.83;;
5157;SDS011;2598;52.364;9.772;2022-07-29T14:55:50;9.93;;;3.10;;
5157;SDS011;2598;52.364;9.772;2022-07-29T14:58:16;11.23;;;3.07;;
5157;SDS011;2598;52.364;9.772;2022-07-29T15:00:43;9.23;;;3.37;;
5157;SDS011;2598;52.364;9.772;2022-07-29T15:03:09;12.23;;;3.30;;
5157;SDS011;2598;52.364;9.772;2022-07-29T15:05:35;12.40;;;2.50;;
5157;SDS011;2598;52.364;9.772;2022-07-29T15:08:01;14.33;;;3.50;;
5157;SDS011;2598;52.364;9.772;2022-07-29T15:10:27;9.37;;;2.73;;
5157;SDS011;2598;52.364;9.772;2022-07-29T15:12:54;9.37;;;2.73;;
5157;SDS011;2598;52.364;9.772;2022-07-29T15:15:20;11.17;;;3.00;;
5157;SDS011;2598;52.364;9.772;2022-07-29T15:17:46;9.57;;;2.80;;
5157;SDS011;2598;52.364;9.772;2022-07-29T15:20:12;9.30;;;2.90;;
5157;SDS011;2598;52.364;9.772;2022-07-29T15:22:38;9.00;;;2.93;;
5157;SDS011;2598;52.364;9.772;2022-07-29T15:25:07;11.17;;;2.70;;
5157;SDS011;2598;52.364;9.772;2022-07-29T15:27:33;10.13;;;2.67;;
5157;SDS011;2598;52.364;9.772;2022-07-29T15:29:59;13.20;;;2.80;;
5157;SDS011;2598;52.364;9.772;2022-07-29T15:32:25;13.00;;;2.80;;
5157;SDS011;2598;52.364;9.772;2022-07-29T15:34:51;13.73;;;3.17;;
5157;SDS011;2598;52.364;9.772;2022-07-29T15:37:17;9.27;;;3.00;;
5157;SDS011;2598;52.364;9.772;2022-07-29T15:39:43;10.53;;;3.00;;
5157;SDS011;2598;52.364;9.772;2022-07-29T15:42:09;10.87;;;3.27;;
5157;SDS011;2598;52.364;9.772;2022-07-29T15:44:35;10.63;;;2.73;;
5157;SDS011;2598;52.364;9.772;2022-07-29T15:47:01;11.17;;;3.13;;
5157;SDS011;2598;52.364;9.772;2022-07-29T15:49:27;10.30;;;3.10;;
5157;SDS011;2598;52.364;9.772;2022-07-29T15:51:56;12.77;;;3.40;;